Time;durP1;ratioP1;P1;durP2;ratioP2;P2;SDS_P1;SDS_P2;PMS_P1;PMS_P2;Temp;Humidity;BMP_temperature;BMP_pressure;BME280_temperature;BME280_humidity;BME280_pressure;Samples;Min_cycle;Max_cycle;Signal;HPM_P1;HPM_P2
2023/05/04 00:02:15;;;;;;;6.47;5.67;;;;;;;10.97;76.72;99189.34;5023905;28;102939;-77
2023/05/04 00:04:45;;;;;;;6.53;5.60;;;;;;;10.86;76.60;99182.09;5025772;28;102594;-77
2023/05/04 00:07:15;;;;;;;5.60;5.10;;;;;;;10.91;75.90;99174.72;5022015;28;107838;-77
2023/05/04 00:09:43;;;;;;;5.27;4.77;;;;;;;10.95;75.82;99165.63;5016012;28;102676;-77
2023/05/04 00:12:11;;;;;;;7.43;4.63;;;;;;;10.98;75.97;99170.72;5031714;28;102622;-77
2023/05/04 00:14:39;;;;;;;6.57;5.47;;;;;;;11.01;75.08;99169.66;5019878;28;102837;-77
2023/05/04 00:17:06;;;;;;;6.10;5.50;;;;;;;10.63;75.79;99169.56;5018105;28;109119;-76
2023/05/04 00:19:36;;;;;;;6.43;5.70;;;;;;;10.78;75.50;99168.53;5025435;27;102997;-78
2023/05/04 00:22:05;;;;;;;6.33;5.67;;;;;;;10.60;75.83;99164.47;5016327;28;102669;-78
2023/05/04 00:24:33;;;;;;;6.90;4.77;;;;;;;10.85;74.47;99169.00;5029729;27;106206;-77
2023/05/04 00:27:01;;;;;;;6.60;5.57;;;;;;;10.81;74.53;99165.69;5031256;27;111539;-79
2023/05/04 00:29:31;;;;;;;6.63;5.90;;;;;;;10.69;74.64;99168.31;5017204;28;102679;-77
2023/05/04 00:32:00;;;;;;;6.20;5.60;;;;;;;10.56;75.49;99162.97;5012625;28;102685;-77
2023/05/04 00:34:29;;;;;;;6.27;5.70;;;;;;;10.65;75.34;99153.59;5002506;27;104672;-77
2023/05/04 00:36:58;;;;;;;7.13;5.43;;;;;;;10.58;75.82;99161.09;5013102;27;103702;-78
2023/05/04 00:39:27;;;;;;;5.97;5.33;;;;;;;10.52;75.97;99148.28;5016147;28;102710;-77
2023/05/04 00:41:55;;;;;;;6.00;5.40;;;;;;;10.56;75.57;99147.13;5017284;28;103244;-77
2023/05/04 00:44:23;;;;;;;8.20;6.30;;;;;;;10.35;76.22;99146.72;5010600;28;103352;-77
2023/05/04 00:46:52;;;;;;;9.17;5.57;;;;;;;10.41;76.35;99137.56;5020422;27;102749;-77
2023/05/04 00:49:24;;;;;;;7.77;5.83;;;;;;;10.37;76.51;99142.19;5011629;28;102646;-77
2023/05/04 00:51:54;;;;;;;7.13;6.03;;;;;;;10.26;76.81;99139.38;4999036;28;102722;-78
2023/05/04 00:54:23;;;;;;;9.10;5.80;;;;;;;10.17;77.52;99142.59;5001893;28;108432;-77
2023/05/04 00:56:53;;;;;;;6.27;5.37;;;;;;;10.09;77.86;99142.22;5009363;28;102665;-77
2023/05/04 00:59:21;;;;;;;6.57;5.73;;;;;;;10.09;78.38;99141.38;5011056;28;103081;-77
2023/05/04 01:01:52;;;;;;;7.07;5.87;;;;;;;9.99;78.49;99145.53;5013859;28;102853;-78
2023/05/04 01:04:20;;;;;;;7.70;5.90;;;;;;;10.18;77.41;99146.09;5007543;28;103160;-77
2023/05/04 01:06:52;;;;;;;7.67;5.60;;;;;;;10.16;77.05;99148.00;5011110;28;103242;-77
2023/05/04 01:09:29;;;;;;;5.73;5.23;;;;;;;10.42;76.14;99141.88;5025038;27;103797;-78
2023/05/04 01:12:06;;;;;;;4.77;4.37;;;;;;;10.80;74.92;99142.03;5005204;28;102710;-77
2023/05/04 01:14:34;;;;;;;6.67;5.30;;;;;;;10.90;74.27;99141.31;5013391;27;103248;-78
2023/05/04 01:17:04;;;;;;;6.03;5.43;;;;;;;10.97;73.80;99147.91;5015771;28;110695;-77
2023/05/04 01:19:35;;;;;;;4.63;4.23;;;;;;;11.01;73.21;99146.72;5014366;28;102843;-77
2023/05/04 01:22:05;;;;;;;6.03;4.00;;;;;;;11.04;72.81;99146.53;5009488;27;102701;-77
2023/05/04 01:24:33;;;;;;;4.77;4.27;;;;;;;11.06;72.70;99147.25;5009528;27;103676;-77
2023/05/04 01:27:05;;;;;;;5.37;4.87;;;;;;;11.09;72.44;99134.81;5009630;28;103754;-78
2023/05/04 01:29:39;;;;;;;6.57;5.10;;;;;;;10.93;73.52;99140.25;5023571;28;102988;-77
2023/05/04 01:32:11;;;;;;;4.70;4.30;;;;;;;10.99;72.86;99139.84;5012371;28;102749;-77
2023/05/04 01:34:41;;;;;;;4.83;4.33;;;;;;;11.03;72.62;99136.06;5012755;27;104204;-77
2023/05/04 01:37:10;;;;;;;6.93;5.30;;;;;;;10.98;73.05;99136.34;5013025;27;103147;-77
2023/05/04 01:39:38;;;;;;;9.33;5.67;;;;;;;10.88;73.40;99135.28;5027152;27;102843;-77
2023/05/04 01:42:07;;;;;;;5.40;4.77;;;;;;;10.72;74.87;99126.66;5014654;28;103874;-77
2023/05/04 01:44:34;;;;;;;6.10;5.50;;;;;;;10.72;74.34;99131.94;5021036;28;112747;-77
2023/05/04 01:47:04;;;;;;;4.97;4.47;;;;;;;10.62;75.81;99130.88;5029252;27;103038;-77
2023/05/04 01:49:32;;;;;;;6.33;5.17;;;;;;;10.63;75.57;99137.00;5022709;28;102841;-77
2023/05/04 01:52:00;;;;;;;5.13;4.63;;;;;;;10.73;74.75;99133.66;5031167;27;102743;-77
2023/05/04 01:54:29;;;;;;;6.77;5.90;;;;;;;10.48;75.68;99144.13;5011285;28;103592;-77
2023/05/04 01:56:57;;;;;;;7.97;5.93;;;;;;;10.49;76.70;99140.56;4996445;28;103383;-78
2023/05/04 01:59:28;;;;;;;6.47;5.47;;;;;;;10.31;77.18;99142.56;5027490;27;102749;-78
2023/05/04 02:01:56;;;;;;;6.23;5.63;;;;;;;10.14;77.97;99144.59;5015304;27;102733;-77
2023/05/04 02:04:26;;;;;;;4.70;4.30;;;;;;;10.29;76.94;99139.19;5017816;28;103311;-78
2023/05/04 02:06:53;;;;;;;5.90;5.30;;;;;;;10.39;76.02;99144.72;5021377;27;102634;-77
2023/05/04 02:09:21;;;;;;;8.40;6.20;;;;;;;10.05;77.50;99139.88;5018081;27;102752;-78
2023/05/04 02:11:51;;;;;;;6.73;5.30;;;;;;;9.76;79.44;99144.34;5029912;27;102736;-78
2023/05/04 02:14:19;;;;;;;6.60;6.00;;;;;;;9.85;79.27;99143.78;5010939;28;103306;-77
2023/05/04 02:16:47;;;;;;;7.50;6.00;;;;;;;9.68;80.02;99142.19;5009471;27;103101;-78
2023/05/04 02:19:15;;;;;;;4.80;4.33;;;;;;;9.95;78.61;99128.19;5013716;28;102575;-77
2023/05/04 02:21:43;;;;;;;6.13;5.53;;;;;;;10.05;77.35;99129.31;4991794;28;102799;-77
2023/05/04 02:24:11;;;;;;;6.93;6.30;;;;;;;9.85;78.77;99128.75;5013983;27;103348;-77
2023/05/04 02:26:39;;;;;;;8.67;6.03;;;;;;;9.90;79.28;99125.84;5009150;27;103395;-77
2023/05/04 02:29:08;;;;;;;4.73;4.33;;;;;;;10.04;78.05;99128.47;5016699;28;102621;-78
2023/05/04 02:31:36;;;;;;;6.33;4.50;;;;;;;10.13;77.09;99132.34;5001864;28;103522;-79
2023/05/04 02:34:07;;;;;;;4.63;4.23;;;;;;;10.15;76.81;99125.16;5001072;28;106508;-78
2023/05/04 02:36:41;;;;;;;6.60;5.13;;;;;;;10.00;77.88;99131.38;5024736;27;111661;-76
2023/05/04 02:39:09;;;;;;;7.80;5.70;;;;;;;10.05;77.25;99134.59;5015632;27;102717;-78
2023/05/04 02:41:36;;;;;;;5.47;4.77;;;;;;;10.00;77.54;99131.38;5013923;28;102769;-79
2023/05/04 02:44:05;;;;;;;8.03;5.93;;;;;;;9.87;77.71;99129.53;5030667;27;104111;-78
2023/05/04 02:46:34;;;;;;;6.97;6.33;;;;;;;9.65;78.48;99130.97;5016266;27;104243;-79
2023/05/04 02:49:02;;;;;;;4.80;4.37;;;;;;;9.74;78.66;99125.13;5003762;27;102625;-78
2023/05/04 02:51:30;;;;;;;6.50;5.77;;;;;;;9.77;78.48;99125.75;5019786;27;102644;-79
2023/05/04 02:53:57;;;;;;;5.30;4.87;;;;;;;9.86;77.89;99129.63;5017575;27;106114;-78
2023/05/04 02:56:25;;;;;;;7.40;6.47;;;;;;;9.73;77.64;99129.53;5003457;27;104856;-78
2023/05/04 02:58:53;;;;;;;6.93;5.90;;;;;;;9.64;78.21;99130.09;5033533;27;102863;-78
2023/05/04 03:01:21;;;;;;;7.33;6.47;;;;;;;9.17;81.65;99124.25;5024216;27;103081;-79
2023/05/04 03:03:50;;;;;;;9.50;5.83;;;;;;;9.03;83.00;99126.84;5026660;27;102692;-78
2023/05/04 03:06:18;;;;;;;8.43;7.33;;;;;;;9.20;81.66;99124.06;5018614;27;103282;-78
2023/05/04 03:08:46;;;;;;;7.27;6.57;;;;;;;9.48;80.77;99126.72;5037469;27;102625;-78
2023/05/04 03:11:14;;;;;;;5.63;5.13;;;;;;;9.72;78.94;99127.84;5029924;27;102660;-79
2023/05/04 03:13:42;;;;;;;5.83;5.33;;;;;;;9.83;77.90;99129.81;5002650;27;105673;-79
2023/05/04 03:16:11;;;;;;;5.20;4.70;;;;;;;9.87;77.33;99132.16;5015628;27;107813;-79
2023/05/04 03:18:38;;;;;;;5.00;4.50;;;;;;;9.75;78.41;99129.44;5014337;27;103298;-79
2023/05/04 03:21:08;;;;;;;5.80;5.20;;;;;;;9.82;77.47;99134.22;5004802;27;102611;-79
2023/05/04 03:23:36;;;;;;;5.77;4.53;;;;;;;9.84;77.32;99142.91;5018814;27;103551;-80
2023/05/04 03:26:04;;;;;;;7.77;6.33;;;;;;;9.72;77.91;99140.19;5022458;27;112292;-80
2023/05/04 03:28:32;;;;;;;9.53;6.90;;;;;;;9.44;80.43;99133.09;5015474;27;102672;-79
2023/05/04 03:31:00;;;;;;;7.37;6.67;;;;;;;9.32;80.64;99129.41;5022433;27;102751;-79
2023/05/04 03:33:29;;;;;;;7.40;6.47;;;;;;;9.39;80.48;99136.97;5025463;27;103537;-79
2023/05/04 03:35:57;;;;;;;6.60;6.00;;;;;;;9.51;79.69;99134.44;5020479;27;108215;-80
2023/05/04 03:38:26;;;;;;;9.37;6.57;;;;;;;9.24;81.16;99136.94;5043412;27;102719;-79
2023/05/04 03:40:55;;;;;;;8.53;7.63;;;;;;;9.06;81.78;99135.44;5012948;27;104588;-79
2023/05/04 03:43:23;;;;;;;7.47;6.67;;;;;;;9.19;81.11;99130.25;5029998;27;103770;-79
2023/05/04 03:45:52;;;;;;;9.77;7.20;;;;;;;9.00;81.71;99127.03;5025017;27;103427;-78
2023/05/04 03:48:20;;;;;;;6.30;5.70;;;;;;;9.27;81.60;99120.09;5019376;27;102810;-79
2023/05/04 03:50:48;;;;;;;7.80;5.87;;;;;;;9.33;80.43;99125.84;5014381;27;102652;-78
2023/05/04 03:53:16;;;;;;;8.10;6.80;;;;;;;9.36;79.42;99119.53;5024695;27;103312;-79
2023/05/04 03:55:45;;;;;;;8.47;7.13;;;;;;;8.92;81.36;99119.59;5010721;27;112589;-79
2023/05/04 03:58:13;;;;;;;8.13;7.20;;;;;;;8.77;84.02;99124.88;5036521;27;103216;-80
2023/05/04 04:00:41;;;;;;;8.10;7.30;;;;;;;8.79;83.19;99117.72;5029315;27;102817;-79
2023/05/04 04:03:14;;;;;;;10.30;6.47;;;;;;;9.08;82.80;99120.34;5025714;27;103994;-79
2023/05/04 04:05:42;;;;;;;7.70;6.47;;;;;;;9.11;81.37;99119.31;5026855;27;103423;-79
2023/05/04 04:08:10;;;;;;;5.33;4.83;;;;;;;9.22;81.65;99122.16;5016852;27;102734;-79
2023/05/04 04:10:39;;;;;;;7.10;6.37;;;;;;;9.35;80.08;99128.38;5030319;27;103699;-79
2023/05/04 04:13:08;;;;;;;8.87;6.13;;;;;;;9.20;81.07;99122.28;5027953;27;103540;-79
2023/05/04 04:15:36;;;;;;;6.93;5.60;;;;;;;9.21;81.27;99115.19;5034175;27;112203;-79
2023/05/04 04:18:04;;;;;;;7.57;6.40;;;;;;;9.04;82.20;99124.09;5038994;27;102699;-80
2023/05/04 04:20:32;;;;;;;8.87;7.97;;;;;;;9.14;81.71;99119.16;5034123;27;102948;-71
2023/05/04 04:23:00;;;;;;;7.80;7.00;;;;;;;9.53;81.33;99115.88;5027776;27;103677;-70
2023/05/04 04:25:28;;;;;;;7.70;6.93;;;;;;;9.85;79.61;99112.91;5030644;27;103114;-72
2023/05/04 04:27:56;;;;;;;7.00;6.40;;;;;;;9.99;79.28;99113.88;5025645;27;103000;-74
2023/05/04 04:30:25;;;;;;;6.80;6.20;;;;;;;9.98;79.28;99117.44;5022122;27;103017;-73
2023/05/04 04:32:56;;;;;;;6.00;5.40;;;;;;;10.38;77.19;99111.34;5034209;27;103447;-73
2023/05/04 04:35:24;;;;;;;7.33;6.63;;;;;;;10.50;76.27;99113.16;5018601;27;103011;-74
2023/05/04 04:37:52;;;;;;;10.52;7.68;;;;;;;10.16;76.75;99105.75;5021062;27;102637;-73
2023/05/04 04:40:21;;;;;;;7.97;7.28;;;;;;;10.37;77.33;99109.63;5028675;27;103211;-74
2023/05/04 04:42:49;;;;;;;10.00;7.90;;;;;;;10.25;77.36;99115.69;5025010;27;103396;-73
2023/05/04 04:45:17;;;;;;;8.10;7.30;;;;;;;10.11;78.00;99113.91;5029895;27;103394;-74
2023/05/04 04:47:49;;;;;;;8.52;7.75;;;;;;;9.75;79.70;99111.81;5029426;27;102989;-73
2023/05/04 04:50:17;;;;;;;6.40;5.90;;;;;;;10.42;78.90;99107.53;5034160;27;102790;-73
2023/05/04 04:52:45;;;;;;;8.27;7.10;;;;;;;10.64;76.82;99113.09;5022945;27;113710;-73
2023/05/04 04:55:14;;;;;;;7.83;7.03;;;;;;;10.73;76.19;99096.66;5018678;27;105054;-73
2023/05/04 04:57:42;;;;;;;7.05;6.45;;;;;;;10.78;76.49;99105.09;5033704;27;102621;-74
2023/05/04 05:00:13;;;;;;;8.52;7.72;;;;;;;10.56;76.93;99102.19;5003640;27;102796;-73
2023/05/04 05:02:41;;;;;;;7.77;6.63;;;;;;;10.16;78.96;99100.47;5019170;27;103373;-73
2023/05/04 05:05:11;;;;;;;11.03;6.70;;;;;;;9.88;81.32;99112.72;5007436;27;103136;-73
2023/05/04 05:07:41;;;;;;;10.77;6.50;;;;;;;9.75;81.53;99105.69;5029115;27;102564;-74
2023/05/04 05:10:11;;;;;;;9.07;6.77;;;;;;;10.04;81.47;99101.22;5018235;27;102709;-73
2023/05/04 05:12:39;;;;;;;9.73;7.20;;;;;;;9.94;80.31;99105.41;5028621;27;103339;-74
2023/05/04 05:15:08;;;;;;;8.07;7.20;;;;;;;10.05;80.06;99098.47;5028765;27;103150;-74
2023/05/04 05:17:36;;;;;;;8.00;6.80;;;;;;;10.38;78.75;99096.34;5024164;27;102930;-73
2023/05/04 05:20:10;;;;;;;8.20;6.77;;;;;;;10.54;77.36;99096.19;5011601;27;102782;-72
2023/05/04 05:22:39;;;;;;;6.70;6.10;;;;;;;10.71;76.97;99098.56;5016739;27;105088;-72
2023/05/04 05:25:08;;;;;;;7.87;7.00;;;;;;;10.36;79.05;99094.72;5023304;27;103159;-72
2023/05/04 05:27:36;;;;;;;9.53;8.47;;;;;;;9.61;81.67;99097.78;5014284;27;102968;-72
2023/05/04 05:30:05;;;;;;;9.27;8.27;;;;;;;9.80;81.41;99093.91;5002805;27;103090;-73
2023/05/04 05:32:33;;;;;;;12.27;8.57;;;;;;;9.92;81.21;99097.56;5023457;27;104911;-72
2023/05/04 05:35:01;;;;;;;11.40;8.83;;;;;;;10.10;80.14;99098.19;5023040;27;116115;-72
2023/05/04 05:37:30;;;;;;;10.23;8.13;;;;;;;10.29;79.87;99104.00;5022508;27;102614;-73
2023/05/04 05:39:59;;;;;;;10.27;7.73;;;;;;;10.56;79.11;99099.56;5018465;27;102781;-74
2023/05/04 05:42:29;;;;;;;6.53;5.87;;;;;;;10.94;77.92;99108.44;5002162;27;106408;-73
2023/05/04 05:44:56;;;;;;;8.93;7.73;;;;;;;10.84;78.78;99104.72;4980781;28;111969;-73
2023/05/04 05:47:24;;;;;;;9.30;8.27;;;;;;;10.60;80.36;99106.34;4983697;28;103077;-72
2023/05/04 05:49:53;;;;;;;8.50;7.77;;;;;;;10.62;79.81;99099.16;5003893;28;102849;-73
2023/05/04 05:52:20;;;;;;;10.73;9.47;;;;;;;10.49;81.08;99108.84;4999656;28;110823;-72
2023/05/04 05:54:48;;;;;;;11.50;8.80;;;;;;;10.80;80.43;99103.22;5011717;28;110786;-73
2023/05/04 05:57:19;;;;;;;14.30;9.10;;;;;;;10.95;79.17;99110.13;5005322;28;102663;-73
2023/05/04 05:59:47;;;;;;;7.43;6.73;;;;;;;11.52;76.86;99107.09;4970110;28;103035;-73
2023/05/04 06:02:15;;;;;;;9.77;8.37;;;;;;;11.37;76.55;99110.78;4997212;28;104464;-73
2023/05/04 06:04:44;;;;;;;8.07;7.27;;;;;;;11.74;75.54;99106.44;5001647;28;103066;-73
2023/05/04 06:07:13;;;;;;;8.37;7.43;;;;;;;11.99;74.33;99096.66;5006610;28;102879;-73
2023/05/04 06:09:41;;;;;;;9.93;8.87;;;;;;;12.19;73.42;99097.88;5004985;28;102727;-73
2023/05/04 06:12:13;;;;;;;9.90;8.47;;;;;;;11.86;75.14;99090.56;5006653;28;104378;-73
2023/05/04 06:14:43;;;;;;;9.33;8.37;;;;;;;12.28;73.82;99099.00;5001619;28;103149;-73
2023/05/04 06:17:10;;;;;;;8.27;7.50;;;;;;;12.61;72.77;99094.72;4971244;28;102751;-73
2023/05/04 06:19:38;;;;;;;9.00;7.93;;;;;;;12.83;71.72;99093.94;5007022;28;103890;-73
2023/05/04 06:22:07;;;;;;;10.07;9.07;;;;;;;12.48;73.32;99093.09;5000775;28;112197;-73
2023/05/04 06:24:35;;;;;;;9.70;8.07;;;;;;;12.86;71.93;99091.06;5008203;28;112357;-73
2023/05/04 06:27:03;;;;;;;10.17;7.63;;;;;;;13.19;71.35;99085.88;5007966;28;102924;-73
2023/05/04 06:29:31;;;;;;;11.13;9.20;;;;;;;13.28;70.91;99090.47;5001409;28;104618;-73
2023/05/04 06:32:02;;;;;;;12.07;10.03;;;;;;;12.96;71.53;99091.22;4997430;28;103302;-73
2023/05/04 06:34:30;;;;;;;10.00;8.20;;;;;;;13.44;71.53;99081.34;4980802;28;114355;-73
2023/05/04 06:37:00;;;;;;;8.90;8.00;;;;;;;13.81;70.50;99088.13;5010422;28;102634;-73
2023/05/04 06:39:28;;;;;;;11.30;10.00;;;;;;;13.11;71.03;99087.44;4986280;28;103073;-73
2023/05/04 06:41:55;;;;;;;10.73;9.63;;;;;;;13.32;71.85;99086.66;5000020;28;106650;-73
2023/05/04 06:44:25;;;;;;;11.53;10.33;;;;;;;13.33;71.70;99084.84;4992391;28;103215;-73
2023/05/04 06:46:56;;;;;;;14.40;9.13;;;;;;;13.51;71.82;99088.69;4987569;28;102651;-74
2023/05/04 06:49:25;;;;;;;11.20;9.70;;;;;;;13.43;71.32;99087.63;5008018;28;102974;-73
2023/05/04 06:51:53;;;;;;;11.27;10.07;;;;;;;13.32;71.83;99091.09;5006627;28;105187;-73
2023/05/04 06:54:21;;;;;;;12.80;10.00;;;;;;;13.53;70.94;99091.25;4992894;28;114315;-73
2023/05/04 06:56:49;;;;;;;11.00;9.93;;;;;;;13.84;71.28;99087.84;5007049;28;102768;-73
2023/05/04 06:59:19;;;;;;;11.43;9.50;;;;;;;14.01;69.70;99078.56;4988348;28;102813;-73
2023/05/04 07:01:47;;;;;;;8.43;7.63;;;;;;;14.77;68.61;99083.78;4995110;28;106619;-73
2023/05/04 07:04:15;;;;;;;9.83;8.83;;;;;;;14.95;68.70;99075.13;5007408;28;109122;-73
2023/05/04 07:06:45;;;;;;;9.00;8.10;;;;;;;15.09;66.64;99079.28;5001181;28;103101;-73
2023/05/04 07:09:13;;;;;;;12.27;10.37;;;;;;;14.92;67.01;99078.03;5002076;28;102994;-74
2023/05/04 07:11:41;;;;;;;9.87;8.80;;;;;;;15.48;64.60;99075.91;4997755;28;111387;-74
2023/05/04 07:14:08;;;;;;;11.83;10.53;;;;;;;15.51;65.56;99072.97;4997765;28;115352;-74
2023/05/04 07:16:37;;;;;;;11.70;9.70;;;;;;;16.05;62.54;99079.78;5006700;28;102664;-74
2023/05/04 07:19:05;;;;;;;10.77;9.67;;;;;;;15.85;63.22;99083.34;4989951;28;102755;-73
2023/05/04 07:21:33;;;;;;;11.10;8.80;;;;;;;16.02;63.25;99072.03;5004125;28;103809;-73
2023/05/04 07:24:03;;;;;;;9.27;8.47;;;;;;;16.22;62.49;99068.44;4986491;28;103364;-73
2023/05/04 07:26:31;;;;;;;9.90;9.00;;;;;;;16.58;61.56;99067.81;5010416;28;102899;-74
2023/05/04 07:28:58;;;;;;;8.60;7.80;;;;;;;17.04;60.22;99063.59;4987344;28;104131;-74
2023/05/04 07:31:26;;;;;;;9.53;8.50;;;;;;;16.94;59.62;99065.41;4988015;28;113456;-74
2023/05/04 07:33:57;;;;;;;11.77;9.53;;;;;;;16.94;59.58;99058.25;4976083;28;105346;-74
2023/05/04 07:36:26;;;;;;;10.17;8.63;;;;;;;16.93;60.57;99063.72;5005332;28;102726;-73
2023/05/04 07:38:54;;;;;;;8.43;7.00;;;;;;;17.74;59.16;99063.16;5010658;28;103090;-73
2023/05/04 07:41:23;;;;;;;11.30;8.50;;;;;;;17.43;59.83;99062.53;5016097;28;103462;-73
2023/05/04 07:43:51;;;;;;;9.57;8.57;;;;;;;18.08;55.84;99074.09;5005763;28;103317;-73
2023/05/04 07:46:19;;;;;;;9.80;8.83;;;;;;;17.36;55.51;99064.06;4996223;28;102670;-73
2023/05/04 07:48:48;;;;;;;9.73;7.87;;;;;;;18.45;55.46;99066.81;5010592;28;102880;-73
2023/05/04 07:51:16;;;;;;;7.50;6.80;;;;;;;18.87;54.27;99064.41;5012959;28;103353;-73
2023/05/04 07:53:43;;;;;;;9.83;8.83;;;;;;;18.75;53.98;99061.13;5003756;28;103210;-73
2023/05/04 07:56:12;;;;;;;9.07;8.17;;;;;;;19.54;52.87;99061.06;4993192;28;102647;-73
2023/05/04 07:58:42;;;;;;;9.23;8.10;;;;;;;19.48;51.47;99059.03;5005641;28;103162;-72
2023/05/04 08:01:09;;;;;;;9.23;8.23;;;;;;;19.46;51.07;99063.69;5003364;28;106649;-73
2023/05/04 08:03:37;;;;;;;8.70;7.60;;;;;;;19.60;50.66;99057.75;5003503;28;103180;-72
2023/05/04 08:06:07;;;;;;;7.28;6.57;;;;;;;19.87;50.75;99062.94;5010340;28;103003;-72
2023/05/04 08:08:35;;;;;;;7.65;6.95;;;;;;;20.26;49.72;99057.06;5006332;28;103028;-72
2023/05/04 08:11:05;;;;;;;7.70;6.22;;;;;;;20.42;50.37;99051.75;5013274;28;103529;-72
2023/05/04 08:13:49;;;;;;;7.00;6.30;;;;;;;21.20;47.83;99039.56;4994520;28;105382;-72
2023/05/04 08:16:17;;;;;;;5.90;5.38;;;;;;;21.56;47.50;99040.00;5008515;28;102699;-73
2023/05/04 08:18:45;;;;;;;7.18;6.53;;;;;;;21.51;45.86;99037.81;4994812;28;102715;-72
2023/05/04 08:21:13;;;;;;;6.18;5.68;;;;;;;21.72;45.04;99029.19;4989973;28;103490;-72
2023/05/04 08:23:41;;;;;;;7.40;6.70;;;;;;;21.48;47.12;99032.78;5005225;28;106741;-72
2023/05/04 08:26:09;;;;;;;7.50;6.80;;;;;;;20.89;47.36;99027.78;4985367;28;102755;-72
2023/05/04 08:28:40;;;;;;;6.30;5.70;;;;;;;21.91;45.85;99028.81;5003759;28;103801;-72
2023/05/04 08:31:09;;;;;;;6.45;5.90;;;;;;;22.30;45.58;99013.47;4966924;28;104380;-72
2023/05/04 08:33:40;;;;;;;8.20;5.55;;;;;;;21.26;47.57;99020.91;5001691;28;103108;-72
2023/05/04 08:36:08;;;;;;;6.60;5.70;;;;;;;21.66;46.69;99022.66;5010669;28;102751;-72
2023/05/04 08:38:36;;;;;;;6.95;6.40;;;;;;;22.00;46.12;99021.56;5015881;28;102859;-72
2023/05/04 08:41:05;;;;;;;6.25;5.55;;;;;;;22.33;45.99;99018.50;5006288;28;103349;-71
2023/05/04 08:43:35;;;;;;;6.60;6.00;;;;;;;22.82;44.69;99013.63;5002150;28;106798;-71
2023/05/04 08:46:03;;;;;;;6.78;6.03;;;;;;;22.34;45.23;99020.16;5003449;28;102788;-71
2023/05/04 08:48:33;;;;;;;7.00;6.40;;;;;;;23.51;43.83;99009.81;5004764;28;103712;-71
2023/05/04 08:51:03;;;;;;;6.28;5.78;;;;;;;22.90;43.77;99015.44;5008221;28;103274;-72
2023/05/04 08:53:32;;;;;;;6.20;5.57;;;;;;;23.03;42.50;99004.88;5005255;28;103758;-71
2023/05/04 08:56:03;;;;;;;5.35;4.93;;;;;;;23.49;41.28;98995.69;5006611;28;102679;-71
2023/05/04 08:58:36;;;;;;;7.22;4.88;;;;;;;24.04;44.00;98992.47;4982445;28;102706;-72
2023/05/04 09:01:06;;;;;;;5.25;4.75;;;;;;;24.04;43.77;98988.94;5012500;28;103384;-71
2023/05/04 09:03:39;;;;;;;6.43;5.40;;;;;;;23.62;41.08;98984.22;5005533;28;112112;-71
2023/05/04 09:06:08;;;;;;;6.13;5.03;;;;;;;23.42;41.78;98986.66;5004910;28;102552;-71
2023/05/04 09:08:36;;;;;;;5.03;4.63;;;;;;;23.40;41.96;98996.78;5002922;28;103915;-71
2023/05/04 09:11:04;;;;;;;4.70;4.30;;;;;;;23.83;40.78;98986.19;5003991;28;103194;-71
2023/05/04 09:13:32;;;;;;;5.25;4.75;;;;;;;23.39;41.12;98980.78;4994883;28;103287;-71
2023/05/04 09:16:02;;;;;;;4.93;4.40;;;;;;;23.83;40.65;98986.19;4986148;28;102725;-71
2023/05/04 09:18:39;;;;;;;5.93;4.22;;;;;;;23.10;40.15;98977.00;5004592;28;102928;-71
2023/05/04 09:21:08;;;;;;;4.30;4.00;;;;;;;24.27;39.44;98973.44;5005045;28;103897;-71
2023/05/04 09:23:46;;;;;;;5.47;4.25;;;;;;;24.43;38.22;98969.66;5006050;28;103218;-71
2023/05/04 09:26:14;;;;;;;3.40;3.15;;;;;;;24.77;40.15;98969.78;5006877;28;102727;-71
2023/05/04 09:28:42;;;;;;;4.10;3.80;;;;;;;24.46;36.92;98972.81;5006529;28;102710;-71
2023/05/04 09:31:10;;;;;;;3.92;3.63;;;;;;;24.43;37.74;98967.81;4998019;28;103692;-71
2023/05/04 09:33:40;;;;;;;3.60;3.30;;;;;;;25.37;37.56;98966.53;4999024;28;106748;-71
2023/05/04 09:36:15;;;;;;;4.43;3.72;;;;;;;24.62;37.98;98972.56;5007555;28;103464;-71
2023/05/04 09:38:43;;;;;;;4.95;3.70;;;;;;;24.92;39.01;98967.88;5004159;28;102787;-71
2023/05/04 09:41:11;;;;;;;4.10;3.53;;;;;;;26.08;36.35;98959.81;5007185;28;103632;-71
2023/05/04 09:43:40;;;;;;;4.20;3.78;;;;;;;24.97;36.84;98948.38;5006581;28;105072;-71
2023/05/04 09:46:16;;;;;;;3.97;3.38;;;;;;;25.65;35.18;98943.00;4992112;28;103949;-71
2023/05/04 09:48:52;;;;;;;4.03;3.63;;;;;;;25.22;35.63;98950.44;5000555;28;102749;-71
2023/05/04 09:51:25;;;;;;;4.55;3.85;;;;;;;24.72;34.39;98943.38;4981556;28;106408;-71
2023/05/04 09:53:53;;;;;;;4.28;3.88;;;;;;;24.19;35.94;98942.03;4997416;28;105894;-70
2023/05/04 09:56:32;;;;;;;6.85;4.15;;;;;;;24.74;37.35;98941.28;5002050;28;102696;-70
2023/05/04 09:59:00;;;;;;;3.97;3.58;;;;;;;25.25;36.20;98941.06;5004316;28;103279;-71
2023/05/04 10:01:29;;;;;;;4.22;3.88;;;;;;;25.61;36.29;98936.31;5005462;28;104082;-72
2023/05/04 10:04:01;;;;;;;3.80;3.50;;;;;;;25.55;36.46;98930.88;5009686;28;103123;-70
2023/05/04 10:06:30;;;;;;;6.30;3.72;;;;;;;25.60;36.20;98934.63;5002201;28;103180;-70
2023/05/04 10:08:59;;;;;;;4.63;4.22;;;;;;;24.48;35.49;98943.75;5007357;28;102647;-71
2023/05/04 10:11:30;;;;;;;5.53;3.42;;;;;;;25.82;36.03;98932.69;5009441;28;103306;-71
2023/05/04 10:13:58;;;;;;;4.22;3.80;;;;;;;25.31;35.69;98937.59;4977729;28;105903;-71
2023/05/04 10:16:36;;;;;;;4.30;3.90;;;;;;;25.06;36.74;98936.38;4985242;28;102759;-73
2023/05/04 10:19:32;;;;;;;7.45;5.57;;;;;;;26.02;37.41;98928.13;5000644;28;102847;-71
2023/05/04 10:22:13;;;;;;;4.78;4.40;;;;;;;25.89;34.57;98923.53;4969229;28;105874;-72
2023/05/04 10:25:21;;;;;;;4.30;3.90;;;;;;;24.62;34.80;98923.94;5003361;28;103272;-72
2023/05/04 10:28:01;;;;;;;3.85;3.38;;;;;;;25.01;34.00;98918.03;4965076;28;102661;-74
2023/05/04 10:30:29;;;;;;;3.83;3.33;;;;;;;24.57;35.08;98918.28;4998431;28;102914;-70
2023/05/04 10:32:59;;;;;;;4.10;3.70;;;;;;;25.35;33.70;98919.91;4993859;28;103514;-73
2023/05/04 10:35:28;;;;;;;5.38;3.92;;;;;;;25.47;32.59;98918.34;4972101;28;106092;-73
2023/05/04 10:37:56;;;;;;;3.58;3.28;;;;;;;25.82;32.62;98906.47;5002930;28;102640;-74
2023/05/04 10:40:40;;;;;;;3.30;3.00;;;;;;;25.95;32.07;98908.34;5009027;28;102787;-71
2023/05/04 10:43:10;;;;;;;3.78;3.45;;;;;;;25.64;32.66;98902.63;4977820;28;115914;-71
2023/05/04 10:45:38;;;;;;;3.72;3.42;;;;;;;25.70;32.60;98902.66;4992536;28;103172;-71
2023/05/04 10:48:07;;;;;;;2.95;2.75;;;;;;;26.49;32.55;98897.47;5004276;28;102952;-71
2023/05/04 10:50:43;;;;;;;3.80;3.50;;;;;;;25.93;32.96;98886.94;5004405;28;102729;-72
2023/05/04 10:53:11;;;;;;;3.33;3.03;;;;;;;25.84;33.64;98890.00;4989521;28;104432;-72
2023/05/04 10:55:41;;;;;;;2.97;2.75;;;;;;;26.47;34.36;98888.72;5002947;28;103073;-72
2023/05/04 10:58:13;;;;;;;3.28;2.85;;;;;;;25.87;31.98;98882.31;4983973;28;102922;-71
2023/05/04 11:00:46;;;;;;;3.40;3.00;;;;;;;25.58;32.54;98890.72;4977381;28;102844;-71
2023/05/04 11:03:14;;;;;;;3.72;3.45;;;;;;;25.85;32.20;98880.84;4992401;28;103400;-72
2023/05/04 11:05:45;;;;;;;2.92;2.60;;;;;;;27.01;31.15;98878.47;4982164;28;103199;-71
2023/05/04 11:08:20;;;;;;;4.40;4.00;;;;;;;26.38;31.64;98879.97;5006801;28;103516;-72
2023/05/04 11:10:49;;;;;;;3.72;3.42;;;;;;;25.72;32.51;98873.53;5007187;27;102769;-73
2023/05/04 11:13:18;;;;;;;3.58;3.28;;;;;;;26.24;31.14;98861.19;4999949;28;105406;-73
2023/05/04 11:15:47;;;;;;;2.47;2.28;;;;;;;27.06;30.56;98859.69;5010245;28;110391;-73
2023/05/04 11:18:26;;;;;;;3.58;3.25;;;;;;;26.85;31.25;98862.66;5008664;28;102797;-69
2023/05/04 11:20:58;;;;;;;4.00;3.67;;;;;;;26.95;30.21;98854.09;5005923;28;103207;-72
2023/05/04 11:23:27;;;;;;;3.40;3.10;;;;;;;27.21;30.39;98854.03;4981635;28;103766;-71
2023/05/04 11:25:55;;;;;;;3.45;3.15;;;;;;;27.20;30.39;98851.53;5000833;28;103600;-71
2023/05/04 11:28:31;;;;;;;3.38;3.08;;;;;;;27.14;29.95;98857.81;5006525;28;103414;-72
2023/05/04 11:30:59;;;;;;;3.83;3.40;;;;;;;26.54;31.20;98857.03;4992184;28;102655;-71
2023/05/04 11:33:29;;;;;;;4.85;3.50;;;;;;;27.06;31.40;98835.28;4981387;28;104627;-70
2023/05/04 11:36:04;;;;;;;6.13;2.97;;;;;;;27.37;31.19;98836.47;4996537;28;103179;-69
2023/05/04 11:38:32;;;;;;;3.25;3.00;;;;;;;26.18;30.82;98834.94;4983955;28;102938;-70